createdAt,value
2022-09-20T00:01:32.899Z,17.75
2022-09-20T00:04:05.083Z,17.75
2022-09-20T00:06:34.351Z,17.74
2022-09-20T00:09:03.522Z,17.70
2022-09-20T00:11:33.707Z,17.70
2022-09-20T00:14:03.128Z,17.67
2022-09-20T00:16:36.766Z,17.65
2022-09-20T00:19:05.808Z,17.61
2022-09-20T00:21:35.068Z,17.61
2022-09-20T00:24:02.734Z,17.58
2022-09-20T00:26:29.862Z,17.56
2022-09-20T00:28:58.666Z,17.53
2022-09-20T00:31:26.418Z,17.51
2022-09-20T00:34:16.757Z,17.51
2022-09-20T00:36:44.998Z,17.48
2022-09-20T00:39:14.879Z,17.47
2022-09-20T00:41:43.236Z,17.46
2022-09-20T00:44:45.520Z,17.43
2022-09-20T00:47:25.038Z,17.42
2022-09-20T00:50:18.150Z,17.40
2022-09-20T00:52:52.803Z,17.37
2022-09-20T00:55:20.875Z,17.35
2022-09-20T00:57:49.120Z,17.36
2022-09-20T01:00:16.427Z,17.37
2022-09-20T01:02:51.007Z,17.36
2022-09-20T01:05:21.487Z,17.35
2022-09-20T01:07:51.874Z,17.36
2022-09-20T01:10:19.046Z,17.36
2022-09-20T01:12:47.524Z,17.36
2022-09-20T01:15:15.775Z,17.35
2022-09-20T01:17:48.813Z,17.37
2022-09-20T01:20:29.200Z,17.34
2022-09-20T01:23:20.772Z,17.28
2022-09-20T01:26:09.996Z,17.25
2022-09-20T01:28:38.347Z,17.21
2022-09-20T01:31:13.620Z,17.19
2022-09-20T01:33:40.534Z,17.14
2022-09-20T01:36:13.482Z,17.09
2022-09-20T01:39:11.201Z,17.06
2022-09-20T01:41:49.595Z,17.08
2022-09-20T01:44:57.254Z,17.08
2022-09-20T01:47:40.580Z,17.02
2022-09-20T01:50:26.306Z,16.98
2022-09-20T01:53:11.707Z,16.97
2022-09-20T01:56:23.160Z,16.95
2022-09-20T01:59:24.095Z,16.91
2022-09-20T02:01:54.582Z,16.91
2022-09-20T02:11:14.116Z,16.82
2022-09-20T02:13:41.735Z,16.74
2022-09-20T02:19:47.098Z,16.64
2022-09-20T02:22:41.369Z,16.55
2022-09-20T02:25:26.249Z,16.53
2022-09-20T02:34:37.003Z,16.47
2022-09-20T02:37:27.265Z,16.41
2022-09-20T02:40:50.435Z,16.31
2022-09-20T02:43:36.035Z,16.27
2022-09-20T02:46:46.107Z,16.27
2022-09-20T02:49:49.747Z,16.25
2022-09-20T02:52:57.202Z,16.22
2022-09-20T02:56:27.398Z,16.20
2022-09-20T03:02:46.873Z,16.17
2022-09-20T03:08:32.836Z,16.16
2022-09-20T03:27:46.927Z,16.02
2022-09-20T03:34:02.888Z,15.99
2022-09-20T03:36:59.674Z,15.98
2022-09-20T03:39:45.199Z,15.96
2022-09-20T03:42:30.043Z,15.96
2022-09-20T03:45:12.614Z,15.95
2022-09-20T03:47:58.325Z,15.94
2022-09-20T03:50:28.006Z,15.96
2022-09-20T03:53:04.649Z,15.96
2022-09-20T03:56:11.431Z,15.94
2022-09-20T03:58:53.398Z,15.94
2022-09-20T04:01:54.177Z,15.93
2022-09-20T04:05:04.066Z,15.87
2022-09-20T04:08:29.699Z,15.86
2022-09-20T04:11:27.025Z,15.79
2022-09-20T04:17:32.810Z,15.79
2022-09-20T04:20:11.275Z,15.77
2022-09-20T04:31:25.052Z,15.68
2022-09-20T04:33:56.281Z,15.67
2022-09-20T04:36:29.072Z,15.70
2022-09-20T04:39:25.254Z,15.72
2022-09-20T04:42:40.322Z,15.75
2022-09-20T04:45:30.645Z,15.75
2022-09-20T04:48:15.460Z,15.78
2022-09-20T04:51:04.497Z,15.79
2022-09-20T04:54:02.047Z,15.81
2022-09-20T04:56:41.267Z,15.82
2022-09-20T04:59:29.850Z,15.85
2022-09-20T05:02:24.857Z,15.88
2022-09-20T05:05:25.878Z,15.88
2022-09-20T05:08:33.985Z,15.85
2022-09-20T05:11:47.254Z,15.85
2022-09-20T05:14:38.467Z,15.84
2022-09-20T05:17:49.659Z,15.80
2022-09-20T05:21:17.611Z,15.78
2022-09-20T05:24:13.832Z,15.75
2022-09-20T05:27:06.265Z,15.70
2022-09-20T05:30:06.547Z,15.63
2022-09-20T05:32:56.240Z,15.58
2022-09-20T05:35:32.833Z,15.57
2022-09-20T05:38:17.149Z,15.58
2022-09-20T05:41:04.716Z,15.56
2022-09-20T05:43:38.449Z,15.56
2022-09-20T05:46:34.187Z,15.54
2022-09-20T05:49:22.238Z,15.55
2022-09-20T05:52:04.202Z,15.54
2022-09-20T05:55:00.423Z,15.53
2022-09-20T05:58:08.793Z,15.55
2022-09-20T06:00:46.703Z,15.57
2022-09-20T06:03:22.992Z,15.62
2022-09-20T06:06:38.246Z,15.63
2022-09-20T06:09:33.573Z,15.62
2022-09-20T06:12:17.966Z,15.60
2022-09-20T06:15:00.224Z,15.60
2022-09-20T06:18:20.187Z,15.61
2022-09-20T06:21:04.614Z,15.66
2022-09-20T06:23:32.094Z,15.68
2022-09-20T06:26:09.290Z,15.75
2022-09-20T06:28:43.536Z,15.78
2022-09-20T06:31:11.445Z,15.80
2022-09-20T06:33:56.328Z,15.87
2022-09-20T06:36:46.115Z,15.93
2022-09-20T06:39:59.688Z,15.99
2022-09-20T06:42:27.614Z,16.07
2022-09-20T06:44:54.655Z,16.19
2022-09-20T06:47:23.663Z,16.24
2022-09-20T06:49:50.919Z,16.31
2022-09-20T06:52:20.993Z,16.41
2022-09-20T06:54:54.310Z,16.49
2022-09-20T06:57:33.984Z,16.55
2022-09-20T07:00:01.313Z,16.63
2022-09-20T07:02:28.844Z,16.72
2022-09-20T07:04:57.486Z,16.78
2022-09-20T07:07:25.086Z,16.85
2022-09-20T07:09:52.248Z,16.94
2022-09-20T07:12:19.599Z,17.01
2022-09-20T07:14:46.785Z,17.07
2022-09-20T07:17:14.789Z,17.11
2022-09-20T07:19:42.353Z,17.15
2022-09-20T07:22:09.499Z,17.20
2022-09-20T07:24:36.453Z,17.30
2022-09-20T07:27:05.271Z,17.30
2022-09-20T07:29:32.755Z,17.38
2022-09-20T07:31:59.821Z,17.44
2022-09-20T07:34:27.291Z,17.51
2022-09-20T07:36:54.976Z,17.51
2022-09-20T07:39:22.048Z,17.59
2022-09-20T07:41:50.714Z,17.68
2022-09-20T07:44:22.067Z,17.72
2022-09-20T07:46:54.683Z,17.79
2022-09-20T07:49:23.213Z,17.87
2022-09-20T07:51:51.220Z,17.90
2022-09-20T07:54:19.577Z,17.97
2022-09-20T07:56:47.607Z,18.04
2022-09-20T07:59:15.540Z,18.05
2022-09-20T08:01:43.175Z,18.13
2022-09-20T08:04:11.358Z,18.19
2022-09-20T08:06:41.571Z,18.27
2022-09-20T08:09:11.345Z,18.37
2022-09-20T08:11:40.598Z,18.42
2022-09-20T08:14:08.989Z,18.43
2022-09-20T08:16:43.508Z,18.52
2022-09-20T08:19:17.258Z,18.57
2022-09-20T08:21:44.860Z,18.66
2022-09-20T08:24:12.374Z,18.72
2022-09-20T08:26:39.775Z,18.74
2022-09-20T08:29:07.022Z,18.80
2022-09-20T08:31:38.846Z,18.87
2022-09-20T08:34:09.662Z,18.92
2022-09-20T08:36:42.045Z,19.02
2022-09-20T08:42:33.648Z,19.11
2022-09-20T08:45:22.169Z,19.20
2022-09-20T08:47:58.619Z,19.25
2022-09-20T08:50:27.066Z,19.30
2022-09-20T08:53:00.287Z,19.35
2022-09-20T08:55:39.924Z,19.38
2022-09-20T08:58:12.561Z,19.48
2022-09-20T09:00:40.735Z,19.54
2022-09-20T09:03:13.552Z,19.59
2022-09-20T09:05:54.964Z,19.68
2022-09-20T09:08:37.741Z,19.73
2022-09-20T09:11:12.868Z,19.79
2022-09-20T09:14:04.830Z,19.84
2022-09-20T09:16:35.720Z,19.90
2022-09-20T09:19:33.610Z,19.95
2022-09-20T09:22:04.598Z,19.99
2022-09-20T09:24:31.936Z,20.06
2022-09-20T09:27:16.332Z,20.16
2022-09-20T09:29:55.316Z,20.13
2022-09-20T09:32:33.265Z,20.22
2022-09-20T09:35:30.093Z,20.29
2022-09-20T09:38:02.316Z,20.33
2022-09-20T09:40:32.241Z,20.40
2022-09-20T09:43:04.241Z,20.48
2022-09-20T09:45:39.352Z,20.56
2022-09-20T09:48:35.766Z,20.61
2022-09-20T09:51:15.466Z,20.60
2022-09-20T09:53:45.587Z,20.69
2022-09-20T09:56:17.950Z,20.74
2022-09-20T09:59:10.576Z,20.80
2022-09-20T10:01:59.937Z,20.89
2022-09-20T10:04:37.467Z,20.96
2022-09-20T10:07:16.327Z,21.03
2022-09-20T10:09:49.232Z,21.12
2022-09-20T10:12:54.197Z,21.18
2022-09-20T10:15:41.990Z,21.21
2022-09-20T10:18:13.874Z,21.26
2022-09-20T10:20:53.163Z,21.31
2022-09-20T10:24:07.075Z,21.36
2022-09-20T10:27:02.264Z,21.46
2022-09-20T10:30:16.946Z,21.55
2022-09-20T10:33:02.283Z,21.52
2022-09-20T10:36:09.829Z,21.56
2022-09-20T10:38:56.724Z,21.66
2022-09-20T10:41:55.868Z,21.75
2022-09-20T10:44:55.208Z,21.86
2022-09-20T10:47:34.957Z,21.87
2022-09-20T10:50:29.474Z,21.93
2022-09-20T10:53:25.972Z,21.96
2022-09-20T10:56:15.982Z,22.05
2022-09-20T10:59:13.569Z,22.16
2022-09-20T11:02:05.207Z,22.19
2022-09-20T11:04:54.069Z,22.13
2022-09-20T11:07:45.498Z,22.21
2022-09-20T11:10:43.146Z,22.30
2022-09-20T11:14:10.220Z,22.43
2022-09-20T11:17:08.526Z,22.50
2022-09-20T11:19:50.830Z,22.64
2022-09-20T11:22:56.043Z,22.74
2022-09-20T11:25:51.941Z,22.79
2022-09-20T11:28:30.550Z,22.86
2022-09-20T11:31:05.025Z,22.92
2022-09-20T11:33:42.852Z,22.97
2022-09-20T11:36:27.348Z,23.09
2022-09-20T11:39:22.337Z,23.17
2022-09-20T11:41:55.778Z,23.26
2022-09-20T11:44:22.837Z,23.35
2022-09-20T11:46:59.935Z,23.42
2022-09-20T11:49:35.664Z,23.46
2022-09-20T11:52:20.449Z,23.46
2022-09-20T11:55:07.312Z,23.46
2022-09-20T11:57:34.641Z,23.53
2022-09-20T12:00:05.041Z,23.61
2022-09-20T12:02:52.256Z,23.72
2022-09-20T12:05:46.159Z,23.82
2022-09-20T12:08:37.246Z,23.92
2022-09-20T12:11:14.442Z,24.01
2022-09-20T12:13:53.124Z,24.05
2022-09-20T12:16:46.211Z,24.11
2022-09-20T12:19:32.943Z,24.15
2022-09-20T12:21:59.893Z,24.22
2022-09-20T12:24:34.003Z,24.25
2022-09-20T12:27:43.939Z,24.27
2022-09-20T12:30:21.891Z,24.33
2022-09-20T12:32:58.691Z,24.37
2022-09-20T12:35:39.139Z,24.44
2022-09-20T12:38:21.443Z,24.50
2022-09-20T12:41:27.790Z,24.59
2022-09-20T12:43:59.730Z,24.67
2022-09-20T12:46:38.569Z,24.72
2022-09-20T12:50:05.746Z,24.61
2022-09-20T12:52:51.286Z,24.67
2022-09-20T12:55:30.061Z,24.77
2022-09-20T12:58:14.820Z,24.84
2022-09-20T13:00:56.021Z,24.87
2022-09-20T13:03:42.837Z,24.93
2022-09-20T13:06:12.052Z,25.01
2022-09-20T13:08:52.649Z,25.03
2022-09-20T13:11:31.453Z,24.93
2022-09-20T13:14:12.565Z,24.88
2022-09-20T13:17:05.102Z,24.85
2022-09-20T13:19:59.044Z,24.93
2022-09-20T13:22:34.447Z,25.01
2022-09-20T13:25:06.461Z,25.12
2022-09-20T13:27:57.228Z,25.22
2022-09-20T13:30:42.259Z,25.27
2022-09-20T13:33:35.573Z,25.33
2022-09-20T13:36:03.467Z,25.31
2022-09-20T13:38:31.932Z,25.36
2022-09-20T13:41:13.125Z,25.36
2022-09-20T13:43:43.720Z,25.35
2022-09-20T13:46:30.082Z,25.40
2022-09-20T13:49:27.184Z,25.48
2022-09-20T13:51:54.489Z,25.55
2022-09-20T13:54:31.571Z,25.62
2022-09-20T13:57:06.797Z,25.68
2022-09-20T13:59:42.116Z,25.74
2022-09-20T14:02:24.724Z,25.73
2022-09-20T14:04:55.519Z,25.73
2022-09-20T14:07:31.055Z,25.76
2022-09-20T14:09:59.081Z,25.76
2022-09-20T14:12:33.664Z,25.81
2022-09-20T14:15:11.406Z,25.73
2022-09-20T14:17:39.130Z,25.73
2022-09-20T14:20:17.254Z,25.74
2022-09-20T14:22:48.569Z,25.81
2022-09-20T14:25:16.102Z,25.74
2022-09-20T14:27:43.103Z,25.52
2022-09-20T14:30:39.641Z,25.49
2022-09-20T14:33:19.486Z,25.54
2022-09-20T14:35:51.743Z,25.57
2022-09-20T14:38:25.189Z,25.58
2022-09-20T14:40:52.899Z,25.58
2022-09-20T14:43:34.703Z,25.52
2022-09-20T14:46:05.701Z,25.48
2022-09-20T14:48:41.244Z,25.38
2022-09-20T14:51:22.311Z,25.34
2022-09-20T14:54:13.738Z,25.30
2022-09-20T14:56:50.421Z,25.27
2022-09-20T14:59:17.707Z,25.23
2022-09-20T15:01:59.750Z,25.18
2022-09-20T15:04:32.732Z,25.12
2022-09-20T15:07:06.469Z,25.07
2022-09-20T15:09:35.299Z,25.02
2022-09-20T15:12:09.627Z,24.98
2022-09-20T15:14:38.123Z,24.93
2022-09-20T15:17:05.563Z,24.90
2022-09-20T15:19:34.566Z,24.87
2022-09-20T15:22:02.339Z,24.85
2022-09-20T15:24:29.957Z,24.81
2022-09-20T15:26:57.128Z,24.79
2022-09-20T15:29:31.870Z,24.76
2022-09-20T15:32:01.276Z,24.75
2022-09-20T15:34:28.951Z,24.74
2022-09-20T15:36:56.142Z,24.67
2022-09-20T15:39:23.752Z,24.64
2022-09-20T15:41:53.921Z,24.64
2022-09-20T15:44:21.063Z,24.57
2022-09-20T15:46:51.090Z,24.53
2022-09-20T15:49:18.877Z,24.51
2022-09-20T15:51:46.567Z,24.47
2022-09-20T15:54:15.419Z,24.44
2022-09-20T15:56:43.133Z,24.43
2022-09-20T15:59:12.572Z,24.40
2022-09-20T16:01:43.633Z,24.39
2022-09-20T16:04:19.621Z,24.36
2022-09-20T16:06:49.584Z,24.33
2022-09-20T16:09:18.163Z,24.30
2022-09-20T16:11:50.249Z,24.25
2022-09-20T16:14:18.330Z,24.21
2022-09-20T16:16:45.444Z,24.16
2022-09-20T16:19:20.753Z,24.14
2022-09-20T16:21:58.076Z,24.12
2022-09-20T16:24:29.339Z,24.11
2022-09-20T16:26:57.545Z,24.09
2022-09-20T16:29:26.050Z,24.03
2022-09-20T16:31:54.571Z,23.99
2022-09-20T16:34:30.343Z,23.95
2022-09-20T16:37:15.850Z,23.92
2022-09-20T16:39:44.464Z,23.88
2022-09-20T16:42:13.256Z,23.84
2022-09-20T16:44:45.352Z,23.81
2022-09-20T16:47:25.348Z,23.75
2022-09-20T16:49:54.232Z,23.71
2022-09-20T16:52:21.320Z,23.65
2022-09-20T16:54:48.736Z,23.60
2022-09-20T16:57:16.123Z,23.56
2022-09-20T16:59:43.287Z,23.51
2022-09-20T17:02:13.628Z,23.47
2022-09-20T17:04:43.498Z,23.43
2022-09-20T17:07:10.609Z,23.38
2022-09-20T17:09:37.519Z,23.31
2022-09-20T17:12:10.260Z,23.26
2022-09-20T17:14:38.113Z,23.20
2022-09-20T17:17:05.200Z,23.14
2022-09-20T17:19:32.362Z,23.08
2022-09-20T17:22:00.175Z,23.03
2022-09-20T17:24:30.158Z,22.99
2022-09-20T17:26:57.545Z,22.93
2022-09-20T17:29:24.709Z,22.87
2022-09-20T17:31:55.934Z,22.81
2022-09-20T17:34:26.477Z,22.76
2022-09-20T17:36:55.189Z,22.70
2022-09-20T17:39:23.039Z,22.64
2022-09-20T17:41:50.912Z,22.60
2022-09-20T17:44:18.201Z,22.53
2022-09-20T17:46:48.401Z,22.48
2022-09-20T17:49:19.313Z,22.42
2022-09-20T17:51:53.536Z,22.37
2022-09-20T17:54:22.635Z,22.31
2022-09-20T17:56:52.342Z,22.27
2022-09-20T17:59:20.945Z,22.22
2022-09-20T18:01:51.200Z,22.17
2022-09-20T18:04:20.987Z,22.11
2022-09-20T18:06:51.368Z,22.06
2022-09-20T18:09:24.807Z,22.01
2022-09-20T18:11:54.338Z,21.95
2022-09-20T18:14:27.628Z,21.88
2022-09-20T18:16:59.171Z,21.84
2022-09-20T18:19:32.550Z,21.79
2022-09-20T18:22:03.948Z,21.71
2022-09-20T18:24:31.794Z,21.69
2022-09-20T18:27:00.582Z,21.67
2022-09-20T18:29:28.654Z,21.62
2022-09-20T18:31:56.850Z,21.59
2022-09-20T18:34:31.065Z,21.56
2022-09-20T18:36:59.870Z,21.53
2022-09-20T18:39:33.213Z,21.51
2022-09-20T18:42:00.340Z,21.49
2022-09-20T18:44:33.967Z,21.46
2022-09-20T18:47:04.979Z,21.39
2022-09-20T18:49:32.463Z,21.41
2022-09-20T18:51:59.437Z,21.38
2022-09-20T18:54:30.874Z,21.36
2022-09-20T18:56:59.007Z,21.34
2022-09-20T18:59:28.154Z,21.31
2022-09-20T19:02:46.300Z,21.26
2022-09-20T19:05:24.374Z,21.26
2022-09-20T19:08:09.496Z,21.21
2022-09-20T19:10:54.705Z,21.16
2022-09-20T19:13:26.908Z,21.13
2022-09-20T19:16:12.013Z,21.09
2022-09-20T19:19:19.460Z,21.05
2022-09-20T19:22:05.588Z,20.99
2022-09-20T19:25:06.606Z,20.93
2022-09-20T19:27:35.268Z,20.90
2022-09-20T19:30:03.248Z,20.88
2022-09-20T19:32:31.131Z,20.87
2022-09-20T19:35:01.962Z,20.85
2022-09-20T19:38:07.315Z,20.80
2022-09-20T19:41:19.603Z,20.74
2022-09-20T19:44:33.503Z,20.70
2022-09-20T19:47:50.696Z,20.65
2022-09-20T19:50:46.267Z,20.63
2022-09-20T19:53:19.450Z,20.58
2022-09-20T19:55:52.536Z,20.56
2022-09-20T19:58:20.316Z,20.52
2022-09-20T20:00:47.946Z,20.46
2022-09-20T20:03:16.779Z,20.47
2022-09-20T20:06:16.332Z,20.45
2022-09-20T20:12:25.966Z,20.36
2022-09-20T20:15:17.987Z,20.32
2022-09-20T20:17:55.106Z,20.25
2022-09-20T20:20:53.191Z,20.19
2022-09-20T20:24:05.186Z,20.13
2022-09-20T20:26:32.316Z,20.08
2022-09-20T20:29:00.085Z,20.04
2022-09-20T20:31:27.224Z,20.01
2022-09-20T20:33:54.765Z,19.97
2022-09-20T20:36:22.310Z,19.94
2022-09-20T20:38:51.703Z,19.91
2022-09-20T20:41:21.559Z,19.89
2022-09-20T20:43:56.328Z,19.83
2022-09-20T20:46:24.585Z,19.80
2022-09-20T20:48:51.653Z,19.78
2022-09-20T20:51:22.789Z,19.76
2022-09-20T20:53:55.001Z,19.75
2022-09-20T20:56:28.866Z,19.72
2022-09-20T20:59:00.918Z,19.71
2022-09-20T21:01:33.578Z,19.65
2022-09-20T21:04:01.913Z,19.63
2022-09-20T21:06:37.091Z,19.62
2022-09-20T21:09:09.231Z,19.59
2022-09-20T21:11:39.236Z,19.57
2022-09-20T21:14:07.474Z,19.59
2022-09-20T21:16:43.105Z,19.59
2022-09-20T21:19:15.234Z,19.58
2022-09-20T21:21:44.766Z,19.53
2022-09-20T21:24:17.347Z,19.55
2022-09-20T21:26:46.058Z,19.55
2022-09-20T21:29:15.774Z,19.55
2022-09-20T21:31:45.456Z,19.52
2022-09-20T21:34:15.460Z,19.54
2022-09-20T21:36:44.724Z,19.53
2022-09-20T21:39:12.054Z,19.54
2022-09-20T21:41:39.684Z,19.55
2022-09-20T21:44:10.005Z,19.55
2022-09-20T21:46:42.426Z,19.54
2022-09-20T21:49:12.249Z,19.53
2022-09-20T21:51:42.037Z,19.51
2022-09-20T21:54:10.154Z,19.51
2022-09-20T21:56:39.994Z,19.48
2022-09-20T21:59:07.888Z,19.47
2022-09-20T22:01:38.399Z,19.45
2022-09-20T22:04:09.517Z,19.44
2022-09-20T22:06:42.688Z,19.42
2022-09-20T22:09:13.380Z,19.37
2022-09-20T22:11:46.986Z,19.31
2022-09-20T22:14:20.446Z,19.28
2022-09-20T22:16:49.079Z,19.25
2022-09-20T22:19:17.657Z,19.21
2022-09-20T22:21:48.242Z,19.15
2022-09-20T22:24:17.097Z,19.07
2022-09-20T22:26:47.945Z,19.05
2022-09-20T22:29:15.980Z,19.01
2022-09-20T22:31:45.679Z,18.97
2022-09-20T22:34:30.570Z,18.88
2022-09-20T22:36:57.530Z,18.83
2022-09-20T22:39:24.419Z,18.84
2022-09-20T22:41:51.510Z,18.82
2022-09-20T22:44:18.422Z,18.78
2022-09-20T22:46:45.268Z,18.77
2022-09-20T22:49:12.317Z,18.74
2022-09-20T22:51:39.515Z,18.72
2022-09-20T22:54:10.571Z,18.67
2022-09-20T22:56:39.427Z,18.65
2022-09-20T22:59:13.929Z,18.63
2022-09-20T23:01:44.229Z,18.60
2022-09-20T23:04:14.547Z,18.56
2022-09-20T23:06:47.799Z,18.53
2022-09-20T23:09:18.020Z,18.52
2022-09-20T23:11:45.619Z,18.50
2022-09-20T23:14:18.203Z,18.46
2022-09-20T23:16:46.107Z,18.45
2022-09-20T23:19:14.478Z,18.43
2022-09-20T23:21:43.747Z,18.43
2022-09-20T23:24:15.530Z,18.41
2022-09-20T23:26:43.781Z,18.39
2022-09-20T23:29:16.320Z,18.36
2022-09-20T23:31:46.839Z,18.33
2022-09-20T23:34:15.484Z,18.29
2022-09-20T23:36:44.384Z,18.27
2022-09-20T23:39:12.456Z,18.25
2022-09-20T23:41:41.409Z,18.24
2022-09-20T23:44:10.261Z,18.21
2022-09-20T23:46:38.538Z,18.17
2022-09-20T23:49:06.722Z,18.14
2022-09-20T23:51:35.415Z,18.12
2022-09-20T23:54:04.089Z,18.09
2022-09-20T23:56:32.221Z,18.07
2022-09-20T23:58:59.193Z,18.06
